createdAt,value
2018-09-16T00:01:20.727Z,101907.83
2018-09-16T00:04:24.724Z,101901.14
2018-09-16T00:07:28.646Z,101902.70
2018-09-16T00:10:32.565Z,101905.39
2018-09-16T00:13:36.497Z,101899.52
2018-09-16T00:16:40.426Z,101897.05
2018-09-16T00:19:44.338Z,101897.19
2018-09-16T00:22:48.271Z,101902.28
2018-09-16T00:25:52.758Z,101900.94
2018-09-16T00:28:56.690Z,101902.28
2018-09-16T00:32:06.043Z,101888.29
2018-09-16T00:35:09.943Z,101891.36
2018-09-16T00:38:13.882Z,101891.42
2018-09-16T00:41:17.830Z,101890.60
2018-09-16T00:44:21.758Z,101890.27
2018-09-16T00:47:25.913Z,101889.03
2018-09-16T00:50:29.843Z,101884.84
2018-09-16T00:53:33.770Z,101884.13
2018-09-16T00:56:37.677Z,101880.72
2018-09-16T00:59:41.730Z,101883.73
2018-09-16T01:02:45.652Z,101883.73
2018-09-16T01:05:55.367Z,101884.63
2018-09-16T01:08:59.642Z,101878.20
2018-09-16T01:12:04.136Z,101879.83
2018-09-16T01:15:08.323Z,101875.58
2018-09-16T01:18:12.246Z,101869.59
2018-09-16T01:21:16.151Z,101861.03
2018-09-16T01:24:20.110Z,101852.88
2018-09-16T01:27:24.038Z,101855.45
2018-09-16T01:30:27.982Z,101853.66
2018-09-16T01:33:32.139Z,101849.78
2018-09-16T01:36:36.264Z,101850.56
2018-09-16T01:39:40.181Z,101848.06
2018-09-16T01:42:44.195Z,101845.36
2018-09-16T01:45:48.291Z,101847.54
2018-09-16T01:48:52.234Z,101851.40
2018-09-16T01:51:56.173Z,101848.72
2018-09-16T01:55:00.095Z,101851.23
2018-09-16T01:58:04.207Z,101856.05
2018-09-16T02:01:08.559Z,101850.50
2018-09-16T02:04:12.481Z,101853.47
2018-09-16T02:07:16.434Z,101848.44
2018-09-16T02:10:20.592Z,101848.05
2018-09-16T02:13:24.537Z,101852.23
2018-09-16T02:16:28.647Z,101843.69
2018-09-16T02:19:32.778Z,101839.38
2018-09-16T02:22:36.698Z,101836.80
2018-09-16T02:25:41.562Z,101838.20
2018-09-16T02:28:45.829Z,101835.31
2018-09-16T02:31:49.878Z,101833.14
2018-09-16T02:34:54.023Z,101839.23
2018-09-16T02:37:57.935Z,101835.09
2018-09-16T02:41:01.866Z,101830.41
2018-09-16T02:44:06.318Z,101828.29
2018-09-16T02:47:10.234Z,101835.33
2018-09-16T02:50:14.216Z,101828.91
2018-09-16T02:53:18.142Z,101828.56
2018-09-16T02:56:22.415Z,101824.37
2018-09-16T02:59:26.325Z,101825.67
2018-09-16T03:02:30.278Z,101821.03
2018-09-16T03:05:39.498Z,101830.14
2018-09-16T03:08:43.418Z,101823.37
2018-09-16T03:11:47.625Z,101816.56
2018-09-16T03:14:53.403Z,101820.05
2018-09-16T03:17:57.627Z,101816.63
2018-09-16T03:21:01.572Z,101817.19
2018-09-16T03:24:05.494Z,101816.41
2018-09-16T03:27:09.410Z,101821.94
2018-09-16T03:30:13.344Z,101824.23
2018-09-16T03:33:17.294Z,101821.72
2018-09-16T03:36:21.214Z,101829.43
2018-09-16T03:39:25.151Z,101834.63
2018-09-16T03:42:29.268Z,101829.98
2018-09-16T03:45:33.194Z,101824.50
2018-09-16T03:48:37.146Z,101834.73
2018-09-16T03:51:41.082Z,101839.92
2018-09-16T03:54:45.009Z,101837.97
2018-09-16T03:57:49.262Z,101841.83
2018-09-16T04:00:53.391Z,101833.28
2018-09-16T04:03:57.510Z,101840.15
2018-09-16T04:07:01.431Z,101842.03
2018-09-16T04:10:05.703Z,101845.00
2018-09-16T04:13:09.635Z,101846.73
2018-09-16T04:16:13.546Z,101846.80
2018-09-16T04:19:17.465Z,101845.22
2018-09-16T04:22:21.418Z,101848.58
2018-09-16T04:25:25.342Z,101851.59
2018-09-16T04:28:29.263Z,101849.52
2018-09-16T04:31:33.192Z,101847.52
2018-09-16T04:34:37.241Z,101856.09
2018-09-16T04:37:41.392Z,101854.38
2018-09-16T04:40:45.532Z,101853.98
2018-09-16T04:43:49.437Z,101852.48
2018-09-16T04:46:53.369Z,101849.52
2018-09-16T04:49:57.324Z,101855.39
2018-09-16T04:53:01.437Z,101855.73
2018-09-16T04:56:05.698Z,101855.33
2018-09-16T04:59:09.627Z,101862.93
2018-09-16T05:02:13.901Z,101864.66
2018-09-16T05:05:17.810Z,101864.84
2018-09-16T05:08:21.727Z,101863.97
2018-09-16T05:11:25.697Z,101869.38
2018-09-16T05:14:29.627Z,101867.64
2018-09-16T05:17:33.567Z,101866.80
2018-09-16T05:20:37.506Z,101873.50
2018-09-16T05:23:41.454Z,101867.42
2018-09-16T05:26:45.689Z,101872.90
2018-09-16T05:29:49.617Z,101873.56
2018-09-16T05:32:53.684Z,101877.81
2018-09-16T05:35:57.609Z,101876.37
2018-09-16T05:39:01.563Z,101874.63
2018-09-16T05:42:05.506Z,101881.78
2018-09-16T05:45:10.003Z,101885.14
2018-09-16T05:48:14.030Z,101882.45
2018-09-16T05:51:17.953Z,101881.38
2018-09-16T05:54:21.873Z,101879.59
2018-09-16T05:57:25.807Z,101878.64
2018-09-16T06:00:29.920Z,101876.52
2018-09-16T06:03:33.858Z,101877.17
2018-09-16T06:06:37.789Z,101871.42
2018-09-16T06:09:41.735Z,101868.34
2018-09-16T06:12:46.161Z,101865.69
2018-09-16T06:15:50.073Z,101863.34
2018-09-16T06:18:54.001Z,101857.17
2018-09-16T06:21:57.992Z,101854.03
2018-09-16T06:25:01.926Z,101854.77
2018-09-16T06:28:06.109Z,101862.78
2018-09-16T06:31:10.062Z,101864.77
2018-09-16T06:34:13.986Z,101867.17
2018-09-16T06:37:17.964Z,101866.20
2018-09-16T06:40:22.464Z,101865.24
2018-09-16T06:43:26.382Z,101866.78
2018-09-16T06:46:30.304Z,101876.06
2018-09-16T06:49:34.210Z,101870.80
2018-09-16T06:52:38.474Z,101870.28
2018-09-16T06:55:42.398Z,101875.73
2018-09-16T06:58:46.369Z,101877.30
2018-09-16T07:01:50.473Z,101875.00
2018-09-16T07:04:54.405Z,101877.03
2018-09-16T07:07:58.311Z,101873.50
2018-09-16T07:11:02.482Z,101862.18
2018-09-16T07:14:06.942Z,101857.78
2018-09-16T07:17:11.230Z,101861.45
2018-09-16T07:20:15.245Z,101856.63
2018-09-16T07:23:19.293Z,101854.30
2018-09-16T07:26:23.578Z,101849.86
2018-09-16T07:29:27.534Z,101850.98
2018-09-16T07:32:31.454Z,101843.91
2018-09-16T07:35:35.434Z,101842.88
2018-09-16T07:38:39.465Z,101837.12
2018-09-16T07:41:43.706Z,101836.47
2018-09-16T07:44:47.636Z,101836.31
2018-09-16T07:47:51.700Z,101841.15
2018-09-16T07:50:55.641Z,101834.47
2018-09-16T07:53:59.613Z,101832.51
2018-09-16T07:57:03.547Z,101831.79
2018-09-16T08:00:07.480Z,101833.30
2018-09-16T08:03:11.410Z,101833.87
2018-09-16T08:06:15.449Z,101831.47
2018-09-16T08:09:19.487Z,101840.65
2018-09-16T08:12:23.435Z,101840.83
2018-09-16T08:15:27.361Z,101840.59
2018-09-16T08:18:31.413Z,101843.73
2018-09-16T08:21:35.357Z,101846.08
2018-09-16T08:24:39.522Z,101840.18
2018-09-16T08:27:43.438Z,101842.52
2018-09-16T08:30:47.366Z,101838.36
2018-09-16T08:33:51.334Z,101837.27
2018-09-16T08:36:55.267Z,101829.70
2018-09-16T08:39:59.208Z,101821.70
2018-09-16T08:43:03.138Z,101818.90
2018-09-16T08:46:07.446Z,101819.86
2018-09-16T08:49:11.386Z,101814.81
2018-09-16T08:52:15.398Z,101814.44
2018-09-16T08:55:19.531Z,101814.64
2018-09-16T08:58:23.622Z,101806.16
2018-09-16T09:01:27.610Z,101804.42
2018-09-16T09:04:31.741Z,101805.78
2018-09-16T09:07:35.658Z,101810.52
2018-09-16T09:10:39.682Z,101817.39
2018-09-16T09:13:43.761Z,101815.21
2018-09-16T09:16:47.687Z,101810.90
2018-09-16T09:19:51.650Z,101815.98
2018-09-16T09:22:55.630Z,101807.85
2018-09-16T09:26:00.015Z,101811.45
2018-09-16T09:29:03.964Z,101817.97
2018-09-16T09:32:08.221Z,101817.15
2018-09-16T09:35:12.535Z,101806.87
2018-09-16T09:38:16.523Z,101810.44
2018-09-16T09:41:20.853Z,101807.55
2018-09-16T09:44:24.823Z,101803.80
2018-09-16T09:47:28.738Z,101798.78
2018-09-16T09:50:32.887Z,101797.72
2018-09-16T09:53:36.821Z,101788.06
2018-09-16T09:56:40.999Z,101784.77
2018-09-16T09:59:45.011Z,101772.02
2018-09-16T10:02:49.149Z,101770.97
2018-09-16T10:05:53.143Z,101770.25
2018-09-16T10:08:57.090Z,101773.91
2018-09-16T10:12:01.062Z,101780.59
2018-09-16T10:15:04.969Z,101771.27
2018-09-16T10:18:09.161Z,101768.16
2018-09-16T10:21:13.122Z,101775.20
2018-09-16T10:24:17.309Z,101763.84
2018-09-16T10:27:21.436Z,101761.02
2018-09-16T10:30:25.379Z,101755.66
2018-09-16T10:33:29.338Z,101754.64
2018-09-16T10:36:33.601Z,101754.47
2018-09-16T10:39:37.573Z,101743.87
2018-09-16T10:42:41.558Z,101741.19
2018-09-16T10:45:45.745Z,101736.57
2018-09-16T10:48:49.689Z,101728.73
2018-09-16T10:51:53.754Z,101739.20
2018-09-16T10:54:57.674Z,101730.88
2018-09-16T10:58:01.673Z,101731.48
2018-09-16T11:01:06.187Z,101723.05
2018-09-16T11:04:10.132Z,101714.11
2018-09-16T11:07:16.838Z,101717.81
2018-09-16T11:10:20.806Z,101715.41
2018-09-16T11:13:25.093Z,101725.54
2018-09-16T11:16:29.268Z,101726.59
2018-09-16T11:19:33.430Z,101724.95
2018-09-16T11:22:37.343Z,101715.97
2018-09-16T11:25:41.286Z,101710.59
2018-09-16T11:28:45.255Z,101706.82
2018-09-16T11:31:49.193Z,101708.30
2018-09-16T11:34:53.122Z,101699.80
2018-09-16T11:37:57.297Z,101692.20
2018-09-16T11:41:01.296Z,101694.50
2018-09-16T11:44:05.675Z,101689.62
2018-09-16T11:47:09.626Z,101682.11
2018-09-16T11:50:13.795Z,101682.28
2018-09-16T11:53:17.745Z,101681.19
2018-09-16T11:56:21.907Z,101683.95
2018-09-16T11:59:25.838Z,101686.27
2018-09-16T12:02:29.779Z,101679.52
2018-09-16T12:05:33.794Z,101677.92
2018-09-16T12:08:37.753Z,101673.67
2018-09-16T12:11:41.682Z,101669.47
2018-09-16T12:14:45.851Z,101667.45
2018-09-16T12:17:50.154Z,101657.95
2018-09-16T12:20:54.095Z,101659.36
2018-09-16T12:23:58.047Z,101652.12
2018-09-16T12:27:02.063Z,101651.38
2018-09-16T12:30:06.111Z,101647.19
2018-09-16T12:33:10.099Z,101649.11
2018-09-16T12:36:14.029Z,101640.58
2018-09-16T12:39:17.962Z,101642.41
2018-09-16T12:42:21.898Z,101636.93
2018-09-16T12:45:25.888Z,101643.84
2018-09-16T12:48:29.957Z,101627.50
2018-09-16T12:51:33.899Z,101627.92
2018-09-16T12:54:37.809Z,101629.66
2018-09-16T12:57:41.854Z,101622.31
2018-09-16T13:00:45.770Z,101627.45
2018-09-16T13:03:49.710Z,101629.41
2018-09-16T13:06:53.987Z,101642.20
2018-09-16T13:09:58.000Z,101633.35
2018-09-16T13:13:02.126Z,101634.08
2018-09-16T13:16:07.598Z,101631.37
2018-09-16T13:19:11.519Z,101635.56
2018-09-16T13:22:15.548Z,101635.45
2018-09-16T13:25:19.643Z,101620.67
2018-09-16T13:28:23.917Z,101617.03
2018-09-16T13:31:27.915Z,101617.75
2018-09-16T13:34:32.198Z,101615.33
2018-09-16T13:37:36.396Z,101610.67
2018-09-16T13:40:40.502Z,101597.44
2018-09-16T13:43:44.643Z,101591.58
2018-09-16T13:46:48.769Z,101589.02
2018-09-16T13:49:52.846Z,101596.05
2018-09-16T13:52:56.863Z,101584.12
2018-09-16T13:56:00.787Z,101582.37
2018-09-16T13:59:04.959Z,101579.95
2018-09-16T14:02:09.098Z,101574.88
2018-09-16T14:05:13.025Z,101568.89
2018-09-16T14:08:18.905Z,101559.92
2018-09-16T14:11:22.827Z,101557.81
2018-09-16T14:14:26.798Z,101551.94
2018-09-16T14:17:30.739Z,101553.26
2018-09-16T14:20:34.720Z,101550.45
2018-09-16T14:23:38.683Z,101551.53
2018-09-16T14:26:42.935Z,101543.84
2018-09-16T14:29:47.159Z,101546.62
2018-09-16T14:32:51.149Z,101541.17
2018-09-16T14:35:55.510Z,101535.73
2018-09-16T14:38:59.751Z,101546.28
2018-09-16T14:42:03.889Z,101538.27
2018-09-16T14:45:08.296Z,101536.41
2018-09-16T14:48:12.330Z,101536.54
2018-09-16T14:51:16.470Z,101522.84
2018-09-16T14:54:20.790Z,101528.64
2018-09-16T14:57:24.898Z,101530.66
2018-09-16T15:00:28.946Z,101523.91
2018-09-16T15:03:33.116Z,101511.70
2018-09-16T15:06:37.224Z,101502.70
2018-09-16T15:09:41.244Z,101497.49
2018-09-16T15:12:45.382Z,101489.91
2018-09-16T15:15:49.491Z,101487.53
2018-09-16T15:18:53.544Z,101482.09
2018-09-16T15:21:57.664Z,101482.30
2018-09-16T15:25:01.665Z,101481.58
2018-09-16T15:28:06.005Z,101481.70
2018-09-16T15:31:10.063Z,101479.65
2018-09-16T15:34:14.214Z,101473.73
2018-09-16T15:37:18.545Z,101470.84
2018-09-16T15:40:22.640Z,101466.23
2018-09-16T15:43:27.298Z,101463.03
2018-09-16T15:46:31.364Z,101467.41
2018-09-16T15:49:35.464Z,101457.58
2018-09-16T15:52:39.476Z,101454.61
2018-09-16T15:55:43.527Z,101459.55
2018-09-16T15:58:47.762Z,101453.63
2018-09-16T16:01:51.710Z,101441.67
2018-09-16T16:04:55.662Z,101436.58
2018-09-16T16:07:59.571Z,101442.38
2018-09-16T16:11:03.596Z,101437.72
2018-09-16T16:14:22.837Z,101442.33
2018-09-16T16:17:26.959Z,101429.07
2018-09-16T16:31:39.718Z,101457.50
2018-09-16T16:34:43.761Z,101451.33
2018-09-16T16:37:47.714Z,101455.94
2018-09-16T16:40:51.702Z,101456.12
2018-09-16T16:43:55.751Z,101459.43
2018-09-16T16:46:59.776Z,101451.02
2018-09-16T16:50:05.239Z,101451.25
2018-09-16T16:53:10.796Z,101444.58
2018-09-16T16:56:14.774Z,101444.08
2018-09-16T16:59:18.777Z,101440.84
2018-09-16T17:02:23.076Z,101448.05
2018-09-16T17:05:27.142Z,101450.04
2018-09-16T17:08:32.093Z,101446.87
2018-09-16T17:11:36.791Z,101451.48
2018-09-16T17:14:40.923Z,101444.44
2018-09-16T17:17:45.103Z,101444.66
2018-09-16T17:20:49.190Z,101450.20
2018-09-16T17:23:53.192Z,101454.76
2018-09-16T17:26:57.314Z,101452.95
2018-09-16T17:30:01.386Z,101447.97
2018-09-16T17:33:05.464Z,101442.59
2018-09-16T17:36:09.849Z,101445.06
2018-09-16T17:39:14.346Z,101447.98
2018-09-16T17:42:18.603Z,101457.37
2018-09-16T17:45:22.664Z,101443.16
2018-09-16T17:48:27.715Z,101447.81
2018-09-16T17:51:32.595Z,101446.47
2018-09-16T17:54:36.986Z,101452.53
2018-09-16T17:57:41.054Z,101453.87
2018-09-16T18:00:45.155Z,101462.55
2018-09-16T18:03:49.513Z,101459.12
2018-09-16T18:06:53.634Z,101457.37
2018-09-16T18:09:57.714Z,101469.48
2018-09-16T18:13:01.764Z,101465.14
2018-09-16T18:16:05.792Z,101466.48
2018-09-16T18:19:09.793Z,101469.93
2018-09-16T18:22:13.824Z,101475.97
2018-09-16T18:25:18.194Z,101478.97
2018-09-16T18:28:22.183Z,101482.52
2018-09-16T18:31:26.244Z,101485.05
2018-09-16T18:34:30.433Z,101490.23
2018-09-16T18:37:34.897Z,101493.60
2018-09-16T18:40:39.121Z,101489.61
2018-09-16T18:43:43.193Z,101491.37
2018-09-16T18:46:47.274Z,101493.89
2018-09-16T18:49:51.445Z,101488.23
2018-09-16T18:52:55.604Z,101483.04
2018-09-16T18:55:59.682Z,101483.86
2018-09-16T18:59:03.827Z,101492.40
2018-09-16T19:02:07.905Z,101493.68
2018-09-16T19:05:11.966Z,101493.11
2018-09-16T19:08:16.353Z,101495.34
2018-09-16T19:11:20.492Z,101491.34
2018-09-16T19:14:24.597Z,101491.26
2018-09-16T19:17:29.202Z,101485.22
2018-09-16T19:20:33.871Z,101485.66
2018-09-16T19:23:38.056Z,101477.34
2018-09-16T19:26:42.081Z,101479.44
2018-09-16T19:29:46.164Z,101466.95
2018-09-16T19:32:50.547Z,101475.06
2018-09-16T19:35:54.601Z,101483.57
2018-09-16T19:38:58.704Z,101480.11
2018-09-16T19:42:03.037Z,101479.98
2018-09-16T19:45:07.856Z,101485.86
2018-09-16T19:48:12.068Z,101489.25
2018-09-16T19:51:16.459Z,101494.78
2018-09-16T19:54:20.427Z,101491.14
2018-09-16T19:57:24.434Z,101487.98
2018-09-16T20:00:28.449Z,101487.11
2018-09-16T20:03:33.062Z,101470.92
2018-09-16T20:06:37.023Z,101470.13
2018-09-16T20:09:40.995Z,101469.02
2018-09-16T20:12:45.049Z,101468.78
2018-09-16T20:15:49.432Z,101463.00
2018-09-16T20:18:53.406Z,101460.51
2018-09-16T20:21:57.401Z,101452.98
2018-09-16T20:25:01.750Z,101446.14
2018-09-16T20:28:05.969Z,101448.90
2018-09-16T20:31:09.930Z,101443.50
2018-09-16T20:34:13.891Z,101447.27
2018-09-16T20:37:17.872Z,101440.46
2018-09-16T20:40:21.913Z,101445.58
2018-09-16T20:43:25.905Z,101444.55
2018-09-16T20:46:30.052Z,101442.59
2018-09-16T20:49:34.147Z,101443.80
2018-09-16T20:52:38.119Z,101439.63
2018-09-16T20:55:42.088Z,101441.38
2018-09-16T20:58:46.059Z,101438.84
2018-09-16T21:01:50.020Z,101443.53
2018-09-16T21:04:54.073Z,101443.91
2018-09-16T21:07:58.024Z,101452.95
2018-09-16T21:11:02.166Z,101450.08
2018-09-16T21:14:06.155Z,101444.16
2018-09-16T21:17:10.281Z,101449.47
2018-09-16T21:20:14.559Z,101453.26
2018-09-16T21:23:18.546Z,101452.05
2018-09-16T21:26:22.612Z,101455.09
2018-09-16T21:29:26.639Z,101457.68
2018-09-16T21:32:30.600Z,101447.97
2018-09-16T21:35:34.573Z,101443.72
2018-09-16T21:38:38.558Z,101444.14
2018-09-16T21:41:43.230Z,101447.19
2018-09-16T21:44:47.158Z,101444.73
2018-09-16T21:47:51.126Z,101437.91
2018-09-16T21:50:55.083Z,101430.33
2018-09-16T21:53:59.053Z,101431.70
2018-09-16T21:57:02.999Z,101435.66
2018-09-16T22:00:07.811Z,101433.62
2018-09-16T22:03:11.763Z,101434.53
2018-09-16T22:06:15.717Z,101430.25
2018-09-16T22:09:19.684Z,101429.59
2018-09-16T22:12:23.634Z,101429.41
2018-09-16T22:15:27.589Z,101433.37
2018-09-16T22:18:31.544Z,101425.34
2018-09-16T22:21:35.495Z,101426.50
2018-09-16T22:24:39.431Z,101422.75
2018-09-16T22:27:43.381Z,101419.25
2018-09-16T22:30:47.683Z,101421.92
2018-09-16T22:33:51.622Z,101412.96
2018-09-16T22:36:55.788Z,101420.34
2018-09-16T22:39:59.748Z,101417.00
2018-09-16T22:43:03.824Z,101422.55
2018-09-16T22:46:07.777Z,101417.46
2018-09-16T22:49:11.927Z,101411.89
2018-09-16T22:52:15.911Z,101408.47
2018-09-16T22:55:19.858Z,101407.64
2018-09-16T22:58:23.802Z,101404.68
2018-09-16T23:01:28.084Z,101406.43
2018-09-16T23:04:32.041Z,101402.18
2018-09-16T23:07:35.989Z,101400.59
2018-09-16T23:10:39.945Z,101399.84
2018-09-16T23:13:44.030Z,101393.02
2018-09-16T23:16:47.980Z,101390.81
2018-09-16T23:19:51.934Z,101393.70
2018-09-16T23:22:56.209Z,101398.40
2018-09-16T23:26:00.183Z,101398.65
2018-09-16T23:29:04.110Z,101400.16
2018-09-16T23:32:08.026Z,101404.11
2018-09-16T23:35:11.951Z,101408.69
2018-09-16T23:38:16.074Z,101400.41
2018-09-16T23:41:19.990Z,101394.65
2018-09-16T23:44:23.927Z,101388.87
2018-09-16T23:47:27.830Z,101389.40
2018-09-16T23:50:31.750Z,101392.98
2018-09-16T23:53:35.884Z,101390.55
2018-09-16T23:56:39.808Z,101389.93
2018-09-16T23:59:43.720Z,101391.53
